WetterOnline ( https://www.wetteronline.de )

Wetter aktuell Darß/Zingst

Aktuelles Wetter: Barth (7m)

6-stündlich | Neueste Meldungen
Ortszeit Temperatur Wetter
Do, 25.04. 14:00 19.3° C fast wolkenlos
Do, 25.04. 8:00 11.7° C bedeckt
Do, 25.04. 2:00 11.5° C wolkenlos
Mi, 24.04. 20:00 16.2° C wolkenlos
Mi, 24.04. 14:00 17.6° C bedeckt
Mi, 24.04. 8:00 12.5° C bewölkt
Mi, 24.04. 2:00 12.4° C leichter Regen
Di, 23.04. 20:00 14.4° C bewölkt
Ortszeit Temperatur Wetter
Do, 25.04. 14:00 19.3° C fast wolkenlos
Do, 25.04. 13:50 19.3° C fast wolkenlos
Do, 25.04. 13:40 20.1° C fast wolkenlos
Do, 25.04. 13:30 19.7° C leicht bewölkt
Do, 25.04. 13:20 19.7° C leicht bewölkt
Do, 25.04. 13:10 19.6° C leicht bewölkt
Do, 25.04. 13:00 19.1° C leicht bewölkt
Do, 25.04. 12:30 18.9° C wolkig
Do, 25.04. 12:00 19.0° C leicht bewölkt
Do, 25.04. 11:30 17.8° C wolkenlos
Do, 25.04. 11:00 17.4° C wolkenlos
Ortszeit Relative Feuchte Sichtweite
Do, 25.04. 14:00 56% 40 km
Do, 25.04. 8:00 89% 6 km
Do, 25.04. 2:00 82% 9 km
Mi, 24.04. 20:00 68% 19 km
Mi, 24.04. 14:00 57% 18 km
Mi, 24.04. 8:00 71% 30 km
Mi, 24.04. 2:00 72% 19 km
Di, 23.04. 20:00 59% 27 km
Ortszeit Relative Feuchte Sichtweite
Do, 25.04. 14:00 56% 40 km
Do, 25.04. 13:50 56% -
Do, 25.04. 13:40 54% -
Do, 25.04. 13:30 55% 26 km
Do, 25.04. 13:20 55% -
Do, 25.04. 13:10 56% -
Do, 25.04. 13:00 54% 45 km
Do, 25.04. 12:30 56% 29 km
Do, 25.04. 12:00 63% 22 km
Do, 25.04. 11:30 67% 23 km
Do, 25.04. 11:00 67% 18 km
Ortszeit Niederschlagsmenge Niederschlagsart
Do, 25.04. 14:00 0.0 l/m2 in 6 Std. -
Do, 25.04. 8:00 0.6 l/m2 in 12 Std. Regen
Do, 25.04. 2:00 0.0 l/m2 in 6 Std. -
Mi, 24.04. 20:00 0.0 l/m2 in 12 Std. -
Mi, 24.04. 14:00 0.0 l/m2 in 6 Std. -
Mi, 24.04. 8:00 0.3 l/m2 in 12 Std. Regen
Mi, 24.04. 2:00 0.3 l/m2 in 6 Std. Regen
Di, 23.04. 20:00 0.1 l/m2 in 12 Std. Regen
Ortszeit Niederschlagsmenge Niederschlagsart
Do, 25.04. 14:00 0.0 l/m2 in 1 Std. -
Do, 25.04. 13:50 keine Meldung -
Do, 25.04. 13:40 keine Meldung -
Do, 25.04. 13:30 0.0 l/m2 in 1 Std. -
Do, 25.04. 13:20 keine Meldung -
Do, 25.04. 13:10 keine Meldung -
Do, 25.04. 13:00 0.0 l/m2 in 1 Std. -
Do, 25.04. 12:30 0.0 l/m2 in 1 Std. -
Do, 25.04. 12:00 0.0 l/m2 in 1 Std. -
Do, 25.04. 11:30 0.0 l/m2 in 1 Std. -
Do, 25.04. 11:00 0.0 l/m2 in 1 Std. -
Ortszeit Stärke Spitze Richtung
km/h Bft. km/h Grad Sektor
Do, 25.04. 14:00 13 3 24 240° SW
Do, 25.04. 8:00 9 2 28 150° SO
Do, 25.04. 2:00 18 3 25 90° O
Mi, 24.04. 20:00 17 3 41 100° O
Mi, 24.04. 14:00 24 4 44 130° SO
Mi, 24.04. 8:00 22 4 39 110° O
Mi, 24.04. 2:00 22 4 40 100° O
Di, 23.04. 20:00 24 4 65 90° O
Ortszeit Stärke Spitze Richtung
km/h Bft. km/h Grad Sektor
Do, 25.04. 14:00 13 3 20 240° SW
Do, 25.04. 13:50 13 3 - 240° SW
Do, 25.04. 13:40 11 2 - 230° SW
Do, 25.04. 13:30 7 2 18 230° SW
Do, 25.04. 13:20 7 2 - 230° SW
Do, 25.04. 13:10 7 2 - 180° S
Do, 25.04. 13:00 7 2 22 210° SW
Do, 25.04. 12:30 13 3 22 240° SW
Do, 25.04. 12:00 13 3 22 230° SW
Do, 25.04. 11:30 15 3 22 240° SW
Do, 25.04. 11:00 17 3 24 240° SW
Ortszeit Untergrenze Bedeckung Gattung
total tief tief mittel hoch
Do, 25.04. 14:00 8700 m 2/8 0/8 - - -
Do, 25.04. 8:00 3600 m 8/8 8/8 - - -
Do, 25.04. 2:00 - 0/8 0/8 - - -
Mi, 24.04. 20:00 - 0/8 0/8 - - -
Mi, 24.04. 14:00 3300 m 8/8 8/8 - - -
Mi, 24.04. 8:00 1260 m 8/8 7/8 - - -
Mi, 24.04. 2:00 2100 m 8/8 6/8 - - -
Di, 23.04. 20:00 2100 m 7/8 8/8 - - -
Ortszeit Bedeckungsgrad in Achtel und Wolkenuntergrenze
Do, 25.04. 14:00 2(8700m)
Do, 25.04. 13:50 2(8700m)
Do, 25.04. 13:40 1(7800m)
Do, 25.04. 13:30 2(7800m) 4(8700m)
Do, 25.04. 13:20 2(7800m) 4(8700m)
Do, 25.04. 13:10 4(9000m)
Do, 25.04. 13:00 8(8700m)
Do, 25.04. 12:30 8(9000m) 8(9000m)
Do, 25.04. 12:00 3(9000m)
Do, 25.04. 11:30 keine Wolken
Do, 25.04. 11:00 keine Wolken
Ortszeit Luftdruck NN (hPa) Tendenz (hPa in 3 Std.)
Do, 25.04. 14:00 1012 + 0,8
Do, 25.04. 8:00 1009 + 1,3
Do, 25.04. 2:00 1007 - 0,9
Mi, 24.04. 20:00 1008 - 0,1
Mi, 24.04. 14:00 1008 - 0,1
Mi, 24.04. 8:00 1008 + 0,2
Mi, 24.04. 2:00 1008 - 1,5
Di, 23.04. 20:00 1010 - 0,9
Ortszeit Luftdruck NN (hPa) Tendenz (hPa in 3 Std.)
Do, 25.04. 14:00 1012 + 0,8
Do, 25.04. 13:50 1012 keine Meldung
Do, 25.04. 13:40 1012 keine Meldung
Do, 25.04. 13:30 1011 + 0,7
Do, 25.04. 13:20 1011 keine Meldung
Do, 25.04. 13:10 1011 keine Meldung
Do, 25.04. 13:00 1012 + 1,2
Do, 25.04. 12:30 1012 + 1,3
Do, 25.04. 12:00 1011 + 1,2
Do, 25.04. 11:30 1011 + 1,7
Do, 25.04. 11:00 1011 + 2,0
Ortszeit Schneehöhe (cm)
Do, 25.04. 14:00 0
Do, 25.04. 8:00 0
Do, 25.04. 2:00 0
Mi, 24.04. 20:00 0
Mi, 24.04. 14:00 0
Mi, 24.04. 8:00 0
Mi, 24.04. 2:00 0
Di, 23.04. 20:00 0
Ortszeit Schneehöhe (cm)
Do, 25.04. 14:00 0
Do, 25.04. 13:50 0
Do, 25.04. 13:40 0
Do, 25.04. 13:30 0
Do, 25.04. 13:20 0
Do, 25.04. 13:10 0
Do, 25.04. 13:00 0
Do, 25.04. 12:30 0
Do, 25.04. 12:00 0
Do, 25.04. 11:30 0
Do, 25.04. 11:00 0
Link zu dieser Seite / Seite empfehlen

Das Wetter in ...